sensor_id;sensor_type;location;lat;lon;timestamp;pressure;altitude;pressure_sealevel;temperature;humidity
23899;BME280;20544;50.018;20.010;2023-04-08T00:00:46;98981.00;;;2.02;100.00
23899;BME280;20544;50.018;20.010;2023-04-08T00:04:02;98984.69;;;2.00;100.00
23899;BME280;20544;50.018;20.010;2023-04-08T00:07:19;98983.75;;;2.01;100.00
23899;BME280;20544;50.018;20.010;2023-04-08T00:10:35;98978.02;;;1.96;100.00
23899;BME280;20544;50.018;20.010;2023-04-08T00:13:51;98985.53;;;1.89;100.00
23899;BME280;20544;50.018;20.010;2023-04-08T00:17:08;98987.43;;;1.87;100.00
23899;BME280;20544;50.018;20.010;2023-04-08T00:20:25;98983.53;;;1.81;100.00
23899;BME280;20544;50.018;20.010;2023-04-08T00:23:42;98984.73;;;1.77;100.00
23899;BME280;20544;50.018;20.010;2023-04-08T00:26:58;98984.83;;;1.75;100.00
23899;BME280;20544;50.018;20.010;2023-04-08T00:30:15;98987.83;;;1.71;100.00
23899;BME280;20544;50.018;20.010;2023-04-08T00:33:31;98992.34;;;1.69;100.00
23899;BME280;20544;50.018;20.010;2023-04-08T00:36:49;98987.23;;;1.67;100.00
23899;BME280;20544;50.018;20.010;2023-04-08T00:40:08;98986.52;;;1.65;100.00
23899;BME280;20544;50.018;20.010;2023-04-08T00:43:27;98984.38;;;1.59;100.00
23899;BME280;20544;50.018;20.010;2023-04-08T00:46:46;98999.94;;;1.49;100.00
23899;BME280;20544;50.018;20.010;2023-04-08T00:50:02;98998.17;;;1.50;100.00
23899;BME280;20544;50.018;20.010;2023-04-08T00:53:20;99000.66;;;1.51;100.00
23899;BME280;20544;50.018;20.010;2023-04-08T00:56:37;99000.78;;;1.50;100.00
23899;BME280;20544;50.018;20.010;2023-04-08T00:59:54;99007.30;;;1.44;100.00
23899;BME280;20544;50.018;20.010;2023-04-08T01:03:15;99002.67;;;1.36;100.00
23899;BME280;20544;50.018;20.010;2023-04-08T01:06:39;99006.36;;;1.34;100.00
23899;BME280;20544;50.018;20.010;2023-04-08T01:10:02;99005.63;;;1.32;100.00
23899;BME280;20544;50.018;20.010;2023-04-08T01:13:19;99007.16;;;1.23;100.00
23899;BME280;20544;50.018;20.010;2023-04-08T01:16:39;99022.36;;;1.18;100.00
23899;BME280;20544;50.018;20.010;2023-04-08T01:19:57;99018.42;;;1.12;100.00
23899;BME280;20544;50.018;20.010;2023-04-08T01:23:19;99017.26;;;1.16;100.00
23899;BME280;20544;50.018;20.010;2023-04-08T01:26:39;99011.43;;;1.12;100.00
23899;BME280;20544;50.018;20.010;2023-04-08T01:29:57;99017.72;;;1.10;100.00
23899;BME280;20544;50.018;20.010;2023-04-08T01:33:15;99023.89;;;1.09;100.00
23899;BME280;20544;50.018;20.010;2023-04-08T01:36:34;99016.87;;;1.09;100.00
23899;BME280;20544;50.018;20.010;2023-04-08T01:39:54;99017.94;;;1.07;100.00
23899;BME280;20544;50.018;20.010;2023-04-08T01:43:13;99026.50;;;1.09;100.00
23899;BME280;20544;50.018;20.010;2023-04-08T01:46:32;99021.73;;;1.03;100.00
23899;BME280;20544;50.018;20.010;2023-04-08T01:49:50;99022.55;;;1.03;100.00
23899;BME280;20544;50.018;20.010;2023-04-08T01:53:09;99028.48;;;0.94;100.00
23899;BME280;20544;50.018;20.010;2023-04-08T01:56:28;99023.47;;;0.91;100.00
23899;BME280;20544;50.018;20.010;2023-04-08T01:59:47;99017.72;;;0.74;100.00
23899;BME280;20544;50.018;20.010;2023-04-08T02:03:07;99031.67;;;0.86;100.00
23899;BME280;20544;50.018;20.010;2023-04-08T02:06:27;99027.05;;;0.90;100.00
23899;BME280;20544;50.018;20.010;2023-04-08T02:13:00;99024.31;;;0.91;100.00
23899;BME280;20544;50.018;20.010;2023-04-08T02:16:24;99036.31;;;0.94;100.00
23899;BME280;20544;50.018;20.010;2023-04-08T02:19:43;99038.47;;;1.00;100.00
23899;BME280;20544;50.018;20.010;2023-04-08T02:23:02;99045.46;;;1.00;100.00
23899;BME280;20544;50.018;20.010;2023-04-08T02:29:38;99043.82;;;0.99;100.00
23899;BME280;20544;50.018;20.010;2023-04-08T02:32:57;99044.77;;;0.98;100.00
23899;BME280;20544;50.018;20.010;2023-04-08T02:36:16;99041.66;;;0.92;100.00
23899;BME280;20544;50.018;20.010;2023-04-08T02:42:49;99038.28;;;0.79;100.00
23899;BME280;20544;50.018;20.010;2023-04-08T02:46:06;99050.56;;;0.90;100.00
23899;BME280;20544;50.018;20.010;2023-04-08T02:49:23;99052.11;;;0.92;100.00
23899;BME280;20544;50.018;20.010;2023-04-08T02:52:39;99048.98;;;0.87;100.00
23899;BME280;20544;50.018;20.010;2023-04-08T02:55:56;99049.98;;;0.98;100.00
23899;BME280;20544;50.018;20.010;2023-04-08T02:59:12;99058.16;;;0.93;100.00
23899;BME280;20544;50.018;20.010;2023-04-08T03:02:29;99056.03;;;0.98;100.00
23899;BME280;20544;50.018;20.010;2023-04-08T03:05:46;99059.13;;;1.03;100.00
23899;BME280;20544;50.018;20.010;2023-04-08T03:09:02;99057.73;;;1.10;100.00
23899;BME280;20544;50.018;20.010;2023-04-08T03:15:35;99062.20;;;0.97;100.00
23899;BME280;20544;50.018;20.010;2023-04-08T03:18:51;99061.53;;;1.06;100.00
23899;BME280;20544;50.018;20.010;2023-04-08T03:22:08;99062.96;;;1.10;100.00
23899;BME280;20544;50.018;20.010;2023-04-08T03:25:24;99063.69;;;1.12;100.00
23899;BME280;20544;50.018;20.010;2023-04-08T03:28:41;99072.10;;;1.05;100.00
23899;BME280;20544;50.018;20.010;2023-04-08T03:31:57;99080.31;;;1.11;100.00
23899;BME280;20544;50.018;20.010;2023-04-08T03:35:15;99081.25;;;1.10;100.00
23899;BME280;20544;50.018;20.010;2023-04-08T03:38:31;99081.98;;;1.12;100.00
23899;BME280;20544;50.018;20.010;2023-04-08T03:41:48;99082.19;;;1.09;100.00
23899;BME280;20544;50.018;20.010;2023-04-08T03:45:07;99081.38;;;1.09;100.00
23899;BME280;20544;50.018;20.010;2023-04-08T03:48:24;99081.83;;;1.03;100.00
23899;BME280;20544;50.018;20.010;2023-04-08T03:51:40;99084.44;;;1.03;100.00
23899;BME280;20544;50.018;20.010;2023-04-08T03:54:57;99087.53;;;1.08;100.00
23899;BME280;20544;50.018;20.010;2023-04-08T03:58:13;99094.44;;;1.09;100.00
23899;BME280;20544;50.018;20.010;2023-04-08T04:01:29;99095.98;;;1.11;100.00
23899;BME280;20544;50.018;20.010;2023-04-08T04:04:47;99097.78;;;1.11;100.00
23899;BME280;20544;50.018;20.010;2023-04-08T04:08:05;99099.66;;;1.09;100.00
23899;BME280;20544;50.018;20.010;2023-04-08T04:11:22;99105.09;;;1.06;100.00
23899;BME280;20544;50.018;20.010;2023-04-08T04:14:38;99112.11;;;1.05;100.00
23899;BME280;20544;50.018;20.010;2023-04-08T04:17:54;99112.94;;;1.06;100.00
23899;BME280;20544;50.018;20.010;2023-04-08T04:21:11;99124.84;;;1.10;100.00
23899;BME280;20544;50.018;20.010;2023-04-08T04:24:27;99125.55;;;1.12;100.00
23899;BME280;20544;50.018;20.010;2023-04-08T04:27:43;99133.95;;;1.04;100.00
23899;BME280;20544;50.018;20.010;2023-04-08T04:31:00;99134.69;;;1.06;100.00
23899;BME280;20544;50.018;20.010;2023-04-08T04:34:19;99130.56;;;1.15;100.00
23899;BME280;20544;50.018;20.010;2023-04-08T04:37:35;99132.73;;;1.21;100.00
23899;BME280;20544;50.018;20.010;2023-04-08T04:40:52;99135.22;;;1.23;100.00
23899;BME280;20544;50.018;20.010;2023-04-08T04:44:09;99139.17;;;1.28;100.00
23899;BME280;20544;50.018;20.010;2023-04-08T04:47:27;99139.17;;;1.28;100.00
23899;BME280;20544;50.018;20.010;2023-04-08T04:50:44;99148.45;;;1.33;100.00
23899;BME280;20544;50.018;20.010;2023-04-08T04:54:09;99154.49;;;1.33;100.00
23899;BME280;20544;50.018;20.010;2023-04-08T04:57:26;99152.61;;;1.35;100.00
23899;BME280;20544;50.018;20.010;2023-04-08T05:00:43;99159.52;;;1.36;100.00
23899;BME280;20544;50.018;20.010;2023-04-08T05:04:00;99154.04;;;1.39;100.00
23899;BME280;20544;50.018;20.010;2023-04-08T05:07:17;99159.27;;;1.39;100.00
23899;BME280;20544;50.018;20.010;2023-04-08T05:10:33;99163.34;;;1.43;100.00
23899;BME280;20544;50.018;20.010;2023-04-08T05:13:53;99166.41;;;1.37;100.00
23899;BME280;20544;50.018;20.010;2023-04-08T05:17:09;99176.41;;;1.43;100.00
23899;BME280;20544;50.018;20.010;2023-04-08T05:20:39;99172.73;;;1.46;100.00
23899;BME280;20544;50.018;20.010;2023-04-08T05:23:57;99179.03;;;1.43;100.00
23899;BME280;20544;50.018;20.010;2023-04-08T05:27:14;99183.98;;;1.35;100.00
23899;BME280;20544;50.018;20.010;2023-04-08T05:30:30;99183.20;;;1.46;100.00
23899;BME280;20544;50.018;20.010;2023-04-08T05:33:46;99188.06;;;1.51;100.00
23899;BME280;20544;50.018;20.010;2023-04-08T05:37:03;99179.84;;;1.44;100.00
23899;BME280;20544;50.018;20.010;2023-04-08T05:40:19;99192.47;;;1.50;100.00
23899;BME280;20544;50.018;20.010;2023-04-08T05:43:36;99192.50;;;1.61;100.00
23899;BME280;20544;50.018;20.010;2023-04-08T05:46:53;99195.14;;;1.73;100.00
23899;BME280;20544;50.018;20.010;2023-04-08T05:50:12;99199.55;;;1.72;100.00
23899;BME280;20544;50.018;20.010;2023-04-08T05:53:28;99205.75;;;1.83;100.00
23899;BME280;20544;50.018;20.010;2023-04-08T05:56:45;99209.19;;;1.83;100.00
23899;BME280;20544;50.018;20.010;2023-04-08T06:00:01;99215.55;;;1.92;100.00
23899;BME280;20544;50.018;20.010;2023-04-08T06:03:18;99227.65;;;1.93;100.00
23899;BME280;20544;50.018;20.010;2023-04-08T06:06:35;99234.55;;;1.94;100.00
23899;BME280;20544;50.018;20.010;2023-04-08T06:09:52;99235.16;;;1.98;100.00
23899;BME280;20544;50.018;20.010;2023-04-08T06:13:10;99238.20;;;1.80;100.00
23899;BME280;20544;50.018;20.010;2023-04-08T06:16:28;99246.42;;;1.87;100.00
23899;BME280;20544;50.018;20.010;2023-04-08T06:19:44;99253.81;;;1.93;100.00
23899;BME280;20544;50.018;20.010;2023-04-08T06:23:01;99252.05;;;1.93;100.00
23899;BME280;20544;50.018;20.010;2023-04-08T06:29:24;99246.27;;;2.24;100.00
23899;BME280;20544;50.018;20.010;2023-04-08T06:32:42;99256.52;;;2.27;100.00
23899;BME280;20544;50.018;20.010;2023-04-08T06:36:06;99257.59;;;2.24;100.00
23899;BME280;20544;50.018;20.010;2023-04-08T06:39:23;99259.23;;;2.25;100.00
23899;BME280;20544;50.018;20.010;2023-04-08T06:42:39;99261.89;;;2.37;100.00
23899;BME280;20544;50.018;20.010;2023-04-08T06:46:01;99262.24;;;2.43;100.00
23899;BME280;20544;50.018;20.010;2023-04-08T06:49:18;99271.17;;;2.52;100.00
23899;BME280;20544;50.018;20.010;2023-04-08T06:52:35;99272.38;;;2.59;100.00
23899;BME280;20544;50.018;20.010;2023-04-08T06:55:52;99256.19;;;2.66;100.00
23899;BME280;20544;50.018;20.010;2023-04-08T06:59:08;99268.42;;;2.77;100.00
23899;BME280;20544;50.018;20.010;2023-04-08T07:02:25;99268.92;;;2.82;100.00
23899;BME280;20544;50.018;20.010;2023-04-08T07:05:42;99277.72;;;2.92;100.00
23899;BME280;20544;50.018;20.010;2023-04-08T07:08:58;99274.49;;;3.00;100.00
23899;BME280;20544;50.018;20.010;2023-04-08T07:12:15;99271.52;;;3.04;100.00
23899;BME280;20544;50.018;20.010;2023-04-08T07:15:31;99268.45;;;3.43;100.00
23899;BME280;20544;50.018;20.010;2023-04-08T07:18:47;99260.70;;;3.42;100.00
23899;BME280;20544;50.018;20.010;2023-04-08T07:22:05;99271.70;;;3.68;100.00
23899;BME280;20544;50.018;20.010;2023-04-08T07:25:21;99284.64;;;3.81;100.00
23899;BME280;20544;50.018;20.010;2023-04-08T07:28:37;99288.36;;;4.42;100.00
23899;BME280;20544;50.018;20.010;2023-04-08T07:31:55;99302.45;;;4.41;100.00
23899;BME280;20544;50.018;20.010;2023-04-08T07:35:12;99298.05;;;4.41;100.00
23899;BME280;20544;50.018;20.010;2023-04-08T07:38:30;99311.56;;;4.36;100.00
23899;BME280;20544;50.018;20.010;2023-04-08T07:41:46;99306.05;;;4.18;100.00
23899;BME280;20544;50.018;20.010;2023-04-08T07:45:03;99307.47;;;4.23;100.00
23899;BME280;20544;50.018;20.010;2023-04-08T07:48:21;99308.56;;;4.20;100.00
23899;BME280;20544;50.018;20.010;2023-04-08T07:51:37;99308.94;;;4.36;100.00
23899;BME280;20544;50.018;20.010;2023-04-08T07:54:54;99320.47;;;4.24;100.00
23899;BME280;20544;50.018;20.010;2023-04-08T07:58:10;99316.55;;;4.18;100.00
23899;BME280;20544;50.018;20.010;2023-04-08T08:01:27;99316.95;;;4.14;100.00
23899;BME280;20544;50.018;20.010;2023-04-08T08:04:44;99316.88;;;4.04;100.00
23899;BME280;20544;50.018;20.010;2023-04-08T08:08:01;99317.77;;;4.14;100.00
23899;BME280;20544;50.018;20.010;2023-04-08T08:11:19;99315.08;;;4.26;100.00
23899;BME280;20544;50.018;20.010;2023-04-08T08:14:36;99320.83;;;4.62;100.00
23899;BME280;20544;50.018;20.010;2023-04-08T08:17:53;99315.84;;;4.59;100.00
23899;BME280;20544;50.018;20.010;2023-04-08T08:21:10;99315.00;;;4.58;100.00
23899;BME280;20544;50.018;20.010;2023-04-08T08:24:26;99315.57;;;4.62;100.00
23899;BME280;20544;50.018;20.010;2023-04-08T08:27:44;99320.74;;;4.73;100.00
23899;BME280;20544;50.018;20.010;2023-04-08T08:31:01;99313.95;;;4.70;100.00
23899;BME280;20544;50.018;20.010;2023-04-08T08:34:18;99324.98;;;4.64;100.00
23899;BME280;20544;50.018;20.010;2023-04-08T08:37:35;99320.16;;;4.69;100.00
23899;BME280;20544;50.018;20.010;2023-04-08T08:40:56;99328.33;;;4.66;100.00
23899;BME280;20544;50.018;20.010;2023-04-08T08:44:14;99329.28;;;4.65;100.00
23899;BME280;20544;50.018;20.010;2023-04-08T08:47:33;99323.16;;;4.55;100.00
23899;BME280;20544;50.018;20.010;2023-04-08T08:50:50;99324.98;;;4.64;100.00
23899;BME280;20544;50.018;20.010;2023-04-08T08:54:07;99331.39;;;4.72;100.00
23899;BME280;20544;50.018;20.010;2023-04-08T08:57:23;99326.00;;;4.73;100.00
23899;BME280;20544;50.018;20.010;2023-04-08T09:00:41;99335.13;;;5.00;100.00
23899;BME280;20544;50.018;20.010;2023-04-08T09:04:07;99330.48;;;5.23;100.00
23899;BME280;20544;50.018;20.010;2023-04-08T09:07:29;99336.80;;;5.61;100.00
23899;BME280;20544;50.018;20.010;2023-04-08T09:10:48;99342.77;;;5.63;100.00
23899;BME280;20544;50.018;20.010;2023-04-08T09:14:05;99347.20;;;5.73;100.00
23899;BME280;20544;50.018;20.010;2023-04-08T09:17:36;99351.02;;;5.99;100.00
23899;BME280;20544;50.018;20.010;2023-04-08T09:20:54;99357.50;;;6.44;100.00
23899;BME280;20544;50.018;20.010;2023-04-08T09:24:27;99355.80;;;6.63;100.00
23899;BME280;20544;50.018;20.010;2023-04-08T09:27:45;99355.61;;;6.84;100.00
23899;BME280;20544;50.018;20.010;2023-04-08T09:31:02;99368.46;;;6.97;100.00
23899;BME280;20544;50.018;20.010;2023-04-08T09:34:36;99362.25;;;6.88;100.00
23899;BME280;20544;50.018;20.010;2023-04-08T09:37:52;99367.97;;;6.74;100.00
23899;BME280;20544;50.018;20.010;2023-04-08T09:41:13;99367.00;;;6.75;100.00
23899;BME280;20544;50.018;20.010;2023-04-08T09:44:33;99372.57;;;6.72;100.00
23899;BME280;20544;50.018;20.010;2023-04-08T09:48:00;99375.88;;;6.74;100.00
23899;BME280;20544;50.018;20.010;2023-04-08T09:51:21;99369.27;;;6.50;100.00
23899;BME280;20544;50.018;20.010;2023-04-08T09:54:52;99380.81;;;6.29;100.00
23899;BME280;20544;50.018;20.010;2023-04-08T09:58:10;99367.48;;;6.11;100.00
23899;BME280;20544;50.018;20.010;2023-04-08T10:01:33;99379.09;;;5.89;100.00
23899;BME280;20544;50.018;20.010;2023-04-08T10:04:52;99376.87;;;5.75;100.00
23899;BME280;20544;50.018;20.010;2023-04-08T10:08:13;99385.00;;;5.62;100.00
23899;BME280;20544;50.018;20.010;2023-04-08T10:18:37;99379.42;;;5.45;100.00
23899;BME280;20544;50.018;20.010;2023-04-08T10:21:54;99381.34;;;5.33;100.00
23899;BME280;20544;50.018;20.010;2023-04-08T10:25:31;99373.70;;;5.30;100.00
23899;BME280;20544;50.018;20.010;2023-04-08T10:28:49;99373.84;;;5.29;100.00
23899;BME280;20544;50.018;20.010;2023-04-08T10:32:06;99369.25;;;5.21;100.00
23899;BME280;20544;50.018;20.010;2023-04-08T10:35:29;99374.47;;;5.11;100.00
23899;BME280;20544;50.018;20.010;2023-04-08T10:38:50;99379.92;;;4.98;100.00
23899;BME280;20544;50.018;20.010;2023-04-08T10:42:08;99374.67;;;4.98;100.00
23899;BME280;20544;50.018;20.010;2023-04-08T10:45:25;99385.33;;;4.97;100.00
23899;BME280;20544;50.018;20.010;2023-04-08T10:48:44;99383.93;;;4.93;100.00
23899;BME280;20544;50.018;20.010;2023-04-08T10:52:12;99385.55;;;4.84;100.00
23899;BME280;20544;50.018;20.010;2023-04-08T10:55:29;99386.94;;;4.88;100.00
23899;BME280;20544;50.018;20.010;2023-04-08T10:58:53;99385.92;;;4.79;100.00
23899;BME280;20544;50.018;20.010;2023-04-08T11:02:16;99381.77;;;4.77;100.00
23899;BME280;20544;50.018;20.010;2023-04-08T11:05:33;99378.89;;;4.80;100.00
23899;BME280;20544;50.018;20.010;2023-04-08T11:08:50;99371.01;;;4.80;100.00
23899;BME280;20544;50.018;20.010;2023-04-08T11:12:08;99379.85;;;4.79;100.00
23899;BME280;20544;50.018;20.010;2023-04-08T11:15:29;99371.52;;;4.74;100.00
23899;BME280;20544;50.018;20.010;2023-04-08T11:18:46;99375.93;;;4.73;100.00
23899;BME280;20544;50.018;20.010;2023-04-08T11:22:05;99378.13;;;4.68;100.00
23899;BME280;20544;50.018;20.010;2023-04-08T11:25:26;99371.47;;;4.64;100.00
23899;BME280;20544;50.018;20.010;2023-04-08T11:28:43;99382.63;;;4.56;100.00
23899;BME280;20544;50.018;20.010;2023-04-08T11:32:01;99376.66;;;4.54;100.00
23899;BME280;20544;50.018;20.010;2023-04-08T11:35:17;99383.00;;;4.51;100.00
23899;BME280;20544;50.018;20.010;2023-04-08T11:38:34;99383.24;;;4.48;100.00
23899;BME280;20544;50.018;20.010;2023-04-08T11:41:55;99383.95;;;4.50;100.00
23899;BME280;20544;50.018;20.010;2023-04-08T11:45:13;99383.69;;;4.53;100.00
23899;BME280;20544;50.018;20.010;2023-04-08T11:48:31;99388.84;;;4.55;100.00
23899;BME280;20544;50.018;20.010;2023-04-08T11:51:59;99382.16;;;4.51;100.00
23899;BME280;20544;50.018;20.010;2023-04-08T11:55:22;99365.70;;;4.49;100.00
23899;BME280;20544;50.018;20.010;2023-04-08T11:58:39;99367.10;;;4.53;100.00
23899;BME280;20544;50.018;20.010;2023-04-08T12:01:55;99367.30;;;4.61;100.00
23899;BME280;20544;50.018;20.010;2023-04-08T12:05:12;99366.34;;;4.62;100.00
23899;BME280;20544;50.018;20.010;2023-04-08T12:08:29;99365.36;;;4.63;100.00
23899;BME280;20544;50.018;20.010;2023-04-08T12:11:45;99365.36;;;4.63;100.00
23899;BME280;20544;50.018;20.010;2023-04-08T12:15:02;99363.45;;;4.65;100.00
23899;BME280;20544;50.018;20.010;2023-04-08T12:18:19;99360.68;;;4.67;100.00
23899;BME280;20544;50.018;20.010;2023-04-08T12:21:35;99364.16;;;4.67;100.00
23899;BME280;20544;50.018;20.010;2023-04-08T12:24:52;99357.67;;;4.72;100.00
23899;BME280;20544;50.018;20.010;2023-04-08T12:28:08;99368.63;;;4.77;100.00
23899;BME280;20544;50.018;20.010;2023-04-08T12:31:25;99368.76;;;4.75;100.00
23899;BME280;20544;50.018;20.010;2023-04-08T12:34:42;99360.88;;;4.75;100.00
23899;BME280;20544;50.018;20.010;2023-04-08T12:37:58;99367.39;;;4.81;100.00
23899;BME280;20544;50.018;20.010;2023-04-08T12:44:30;99366.57;;;4.80;100.00
23899;BME280;20544;50.018;20.010;2023-04-08T12:47:47;99369.06;;;4.82;100.00
23899;BME280;20544;50.018;20.010;2023-04-08T12:51:04;99353.73;;;4.87;100.00
23899;BME280;20544;50.018;20.010;2023-04-08T12:54:21;99360.41;;;4.91;100.00
23899;BME280;20544;50.018;20.010;2023-04-08T12:57:37;99364.43;;;4.95;100.00
23899;BME280;20544;50.018;20.010;2023-04-08T13:00:54;99360.56;;;4.99;100.00
23899;BME280;20544;50.018;20.010;2023-04-08T13:04:10;99369.16;;;5.01;100.00
23899;BME280;20544;50.018;20.010;2023-04-08T13:07:28;99362.80;;;5.04;100.00
23899;BME280;20544;50.018;20.010;2023-04-08T13:10:44;99363.38;;;5.08;100.00
23899;BME280;20544;50.018;20.010;2023-04-08T13:14:01;99364.77;;;5.12;100.00
23899;BME280;20544;50.018;20.010;2023-04-08T13:17:17;99359.27;;;5.15;100.00
23899;BME280;20544;50.018;20.010;2023-04-08T13:20:33;99360.08;;;5.15;100.00
23899;BME280;20544;50.018;20.010;2023-04-08T13:23:50;99362.57;;;5.17;100.00
23899;BME280;20544;50.018;20.010;2023-04-08T13:27:06;99364.56;;;5.25;100.00
23899;BME280;20544;50.018;20.010;2023-04-08T13:30:23;99368.16;;;5.24;100.00
23899;BME280;20544;50.018;20.010;2023-04-08T13:33:42;99358.73;;;5.21;100.00
23899;BME280;20544;50.018;20.010;2023-04-08T13:36:58;99355.42;;;5.29;100.00
23899;BME280;20544;50.018;20.010;2023-04-08T13:40:15;99351.55;;;5.33;100.00
23899;BME280;20544;50.018;20.010;2023-04-08T13:43:32;99356.84;;;5.43;100.00
23899;BME280;20544;50.018;20.010;2023-04-08T13:46:49;99348.16;;;5.52;100.00
23899;BME280;20544;50.018;20.010;2023-04-08T13:50:07;99351.33;;;5.56;100.00
23899;BME280;20544;50.018;20.010;2023-04-08T13:53:25;99353.41;;;5.62;100.00
23899;BME280;20544;50.018;20.010;2023-04-08T13:56:41;99348.71;;;5.65;100.00
23899;BME280;20544;50.018;20.010;2023-04-08T13:59:58;99358.70;;;5.72;100.00
23899;BME280;20544;50.018;20.010;2023-04-08T14:03:17;99358.01;;;5.79;100.00
23899;BME280;20544;50.018;20.010;2023-04-08T14:06:34;99352.63;;;5.81;100.00
23899;BME280;20544;50.018;20.010;2023-04-08T14:09:51;99340.14;;;5.83;100.00
23899;BME280;20544;50.018;20.010;2023-04-08T14:13:08;99347.48;;;5.89;100.00
23899;BME280;20544;50.018;20.010;2023-04-08T14:16:25;99345.15;;;5.86;100.00
23899;BME280;20544;50.018;20.010;2023-04-08T14:19:42;99344.59;;;5.92;100.00
23899;BME280;20544;50.018;20.010;2023-04-08T14:22:59;99346.94;;;5.95;100.00
23899;BME280;20544;50.018;20.010;2023-04-08T14:29:31;99343.34;;;5.96;100.00
23899;BME280;20544;50.018;20.010;2023-04-08T14:32:48;99342.81;;;6.03;100.00
23899;BME280;20544;50.018;20.010;2023-04-08T14:36:04;99350.31;;;6.07;100.00
23899;BME280;20544;50.018;20.010;2023-04-08T14:39:23;99360.44;;;6.12;100.00
23899;BME280;20544;50.018;20.010;2023-04-08T14:42:39;99357.66;;;6.13;100.00
23899;BME280;20544;50.018;20.010;2023-04-08T14:45:58;99359.88;;;6.18;100.00
23899;BME280;20544;50.018;20.010;2023-04-08T14:49:14;99361.41;;;6.21;100.00
23899;BME280;20544;50.018;20.010;2023-04-08T14:52:31;99356.95;;;6.21;100.00
23899;BME280;20544;50.018;20.010;2023-04-08T14:55:47;99355.99;;;6.12;100.00
23899;BME280;20544;50.018;20.010;2023-04-08T14:59:04;99359.03;;;6.18;100.00
23899;BME280;20544;50.018;20.010;2023-04-08T15:02:21;99360.00;;;6.17;100.00
23899;BME280;20544;50.018;20.010;2023-04-08T15:05:39;99362.38;;;6.20;100.00
23899;BME280;20544;50.018;20.010;2023-04-08T15:08:56;99362.22;;;6.21;100.00
23899;BME280;20544;50.018;20.010;2023-04-08T15:12:16;99360.41;;;6.22;100.00
23899;BME280;20544;50.018;20.010;2023-04-08T15:15:32;99360.85;;;6.27;100.00
23899;BME280;20544;50.018;20.010;2023-04-08T15:18:49;99360.85;;;6.27;100.00
23899;BME280;20544;50.018;20.010;2023-04-08T15:22:07;99356.40;;;6.27;100.00
23899;BME280;20544;50.018;20.010;2023-04-08T15:25:24;99355.14;;;6.31;100.00
23899;BME280;20544;50.018;20.010;2023-04-08T15:28:41;99365.56;;;6.33;100.00
23899;BME280;20544;50.018;20.010;2023-04-08T15:31:58;99358.47;;;6.34;100.00
23899;BME280;20544;50.018;20.010;2023-04-08T15:35:15;99355.84;;;6.34;100.00
23899;BME280;20544;50.018;20.010;2023-04-08T15:38:35;99360.95;;;6.35;100.00
23899;BME280;20544;50.018;20.010;2023-04-08T15:41:51;99352.66;;;6.20;100.00
23899;BME280;20544;50.018;20.010;2023-04-08T15:45:09;99354.47;;;6.20;100.00
23899;BME280;20544;50.018;20.010;2023-04-08T15:48:26;99356.25;;;6.29;100.00
23899;BME280;20544;50.018;20.010;2023-04-08T15:51:43;99357.66;;;6.33;100.00
23899;BME280;20544;50.018;20.010;2023-04-08T15:55:02;99362.48;;;6.38;100.00
23899;BME280;20544;50.018;20.010;2023-04-08T15:58:19;99359.73;;;6.39;100.00
23899;BME280;20544;50.018;20.010;2023-04-08T16:01:35;99360.55;;;6.40;100.00
23899;BME280;20544;50.018;20.010;2023-04-08T16:04:52;99357.91;;;6.40;100.00
23899;BME280;20544;50.018;20.010;2023-04-08T16:08:09;99361.25;;;6.42;100.00
23899;BME280;20544;50.018;20.010;2023-04-08T16:11:26;99364.55;;;6.44;100.00
23899;BME280;20544;50.018;20.010;2023-04-08T16:14:42;99368.45;;;6.40;100.00
23899;BME280;20544;50.018;20.010;2023-04-08T16:18:02;99364.00;;;6.40;100.00
23899;BME280;20544;50.018;20.010;2023-04-08T16:21:19;99365.81;;;6.40;100.00
23899;BME280;20544;50.018;20.010;2023-04-08T16:24:37;99366.64;;;6.40;100.00
23899;BME280;20544;50.018;20.010;2023-04-08T16:27:53;99368.60;;;6.38;100.00
23899;BME280;20544;50.018;20.010;2023-04-08T16:31:10;99360.70;;;6.38;100.00
23899;BME280;20544;50.018;20.010;2023-04-08T16:34:27;99368.60;;;6.38;100.00
23899;BME280;20544;50.018;20.010;2023-04-08T16:37:44;99363.19;;;6.40;100.00
23899;BME280;20544;50.018;20.010;2023-04-08T16:41:00;99374.69;;;6.39;100.00
23899;BME280;20544;50.018;20.010;2023-04-08T16:44:18;99379.14;;;6.38;100.00
23899;BME280;20544;50.018;20.010;2023-04-08T16:47:35;99381.89;;;6.37;100.00
23899;BME280;20544;50.018;20.010;2023-04-08T16:50:53;99384.53;;;6.37;100.00
23899;BME280;20544;50.018;20.010;2023-04-08T16:54:10;99382.89;;;6.36;100.00
23899;BME280;20544;50.018;20.010;2023-04-08T16:57:27;99377.73;;;6.34;100.00
23899;BME280;20544;50.018;20.010;2023-04-08T17:00:44;99379.55;;;6.34;100.00
23899;BME280;20544;50.018;20.010;2023-04-08T17:04:00;99384.13;;;6.31;100.00
23899;BME280;20544;50.018;20.010;2023-04-08T17:07:17;99383.45;;;6.29;100.00
23899;BME280;20544;50.018;20.010;2023-04-08T17:10:35;99395.91;;;6.27;100.00
23899;BME280;20544;50.018;20.010;2023-04-08T17:14:23;99394.39;;;6.25;100.00
23899;BME280;20544;50.018;20.010;2023-04-08T17:17:40;99394.66;;;6.22;100.00
23899;BME280;20544;50.018;20.010;2023-04-08T17:20:57;99393.02;;;6.21;100.00
23899;BME280;20544;50.018;20.010;2023-04-08T17:24:14;99397.44;;;6.20;100.00
23899;BME280;20544;50.018;20.010;2023-04-08T17:27:31;99402.85;;;6.19;100.00
23899;BME280;20544;50.018;20.010;2023-04-08T17:30:47;99404.11;;;6.14;100.00
23899;BME280;20544;50.018;20.010;2023-04-08T17:34:04;99405.47;;;6.09;100.00
23899;BME280;20544;50.018;20.010;2023-04-08T17:37:20;99410.47;;;6.02;100.00
23899;BME280;20544;50.018;20.010;2023-04-08T17:40:37;99412.66;;;5.97;100.00
23899;BME280;20544;50.018;20.010;2023-04-08T17:43:56;99404.59;;;5.89;100.00